Time;durP1;ratioP1;P1;durP2;ratioP2;P2;SDS_P1;SDS_P2;PMS_P1;PMS_P2;Temp;Humidity;BMP_temperature;BMP_pressure;BME280_temperature;BME280_humidity;BME280_pressure;Samples;Min_cycle;Max_cycle;Signal;HPM_P1;HPM_P2
2022/03/08 00:01:36;;;;;;;;;;;-2.40;99.90;;;;;;5017567;28;20464;-85
2022/03/08 00:04:02;;;;;;;;;;;-2.40;99.90;;;;;;5033205;28;20016;-84
2022/03/08 00:06:27;;;;;;;;;;;-2.40;99.90;;;;;;5016362;28;19913;-84
2022/03/08 00:08:53;;;;;;;;;;;-2.40;99.90;;;;;;5016805;28;20375;-84
2022/03/08 00:11:19;;;;;;;;;;;-2.40;99.90;;;;;;4998535;28;19928;-84
2022/03/08 00:13:44;;;;;;;;;;;-2.40;99.90;;;;;;4994101;28;19917;-85
2022/03/08 00:16:10;;;;;;;;;;;-2.40;99.90;;;;;;5011601;28;19925;-84
2022/03/08 00:18:38;;;;;;;;;;;-2.30;99.90;;;;;;5016947;28;19963;-84
2022/03/08 00:21:05;;;;;;;;;;;-2.30;99.90;;;;;;5017299;28;19967;-85
2022/03/08 00:23:31;;;;;;;;;;;-2.30;99.90;;;;;;5033865;28;19920;-84
2022/03/08 00:25:59;;;;;;;;;;;-2.30;99.90;;;;;;4992973;28;19913;-84
2022/03/08 00:28:25;;;;;;;;;;;-2.30;99.90;;;;;;5033197;28;19913;-85
2022/03/08 00:30:51;;;;;;;;;;;-2.30;99.90;;;;;;5000844;28;20410;-85
2022/03/08 00:33:17;;;;;;;;;;;-2.20;99.90;;;;;;5017146;28;19952;-84
2022/03/08 00:35:43;;;;;;;;;;;-2.20;99.90;;;;;;5014972;28;19943;-84
2022/03/08 00:38:08;;;;;;;;;;;-2.20;99.90;;;;;;5016680;28;20363;-85
2022/03/08 00:40:34;;;;;;;;;;;-2.30;99.90;;;;;;5016804;28;19913;-85
2022/03/08 00:42:59;;;;;;;;;;;-2.40;99.90;;;;;;5000507;28;19913;-85
2022/03/08 00:45:25;;;;;;;;;;;-2.40;99.90;;;;;;5032345;28;20387;-85
2022/03/08 00:47:53;;;;;;;;;;;-2.40;99.90;;;;;;5016000;28;20434;-85
2022/03/08 00:50:21;;;;;;;;;;;-2.40;99.90;;;;;;5000846;28;19917;-85
2022/03/08 00:52:47;;;;;;;;;;;-2.40;99.90;;;;;;5001442;28;19925;-85
2022/03/08 00:55:13;;;;;;;;;;;-2.40;99.90;;;;;;5029435;28;19921;-85
2022/03/08 00:57:39;;;;;;;;;;;-2.40;99.90;;;;;;5034007;28;19924;-84
2022/03/08 01:00:07;;;;;;;;;;;-2.40;99.90;;;;;;5034880;28;19928;-85
2022/03/08 01:02:33;;;;;;;;;;;-2.40;99.90;;;;;;4999512;28;20383;-85
2022/03/08 01:04:58;;;;;;;;;;;-2.40;99.90;;;;;;4999724;28;19967;-84
2022/03/08 01:07:24;;;;;;;;;;;-2.40;99.90;;;;;;5016493;28;19910;-85
2022/03/08 01:09:49;;;;;;;;;;;-2.40;99.90;;;;;;5014910;28;20363;-85
2022/03/08 01:12:15;;;;;;;;;;;-2.30;99.90;;;;;;5007206;28;19917;-85
2022/03/08 01:14:41;;;;;;;;;;;-2.30;99.90;;;;;;5008155;28;19923;-85
2022/03/08 01:17:06;;;;;;;;;;;-2.20;99.90;;;;;;5015069;28;19936;-85
2022/03/08 01:19:32;;;;;;;;;;;-2.20;99.90;;;;;;5009360;28;20306;-85
2022/03/08 01:21:57;;;;;;;;;;;-2.20;99.90;;;;;;4989675;28;19924;-85
2022/03/08 01:24:23;;;;;;;;;;;-2.20;99.90;;;;;;5005627;28;19925;-85
2022/03/08 01:26:49;;;;;;;;;;;-2.20;99.90;;;;;;5042546;28;20036;-85
2022/03/08 01:29:16;;;;;;;;;;;-2.20;99.90;;;;;;5006754;28;19917;-85
2022/03/08 01:31:41;;;;;;;;;;;-2.20;99.90;;;;;;4992554;28;19931;-85
2022/03/08 01:34:07;;;;;;;;;;;-2.20;99.90;;;;;;5006559;28;19917;-85
2022/03/08 01:36:33;;;;;;;;;;;-2.10;99.90;;;;;;4990722;28;19932;-85
2022/03/08 01:38:59;;;;;;;;;;;-2.10;99.90;;;;;;5013993;28;19979;-85
2022/03/08 01:41:24;;;;;;;;;;;-2.00;99.90;;;;;;5014380;28;20374;-85
2022/03/08 01:43:50;;;;;;;;;;;-2.10;99.90;;;;;;5025050;28;19917;-85
2022/03/08 01:46:16;;;;;;;;;;;-2.20;99.90;;;;;;4995566;28;20379;-85
2022/03/08 01:48:42;;;;;;;;;;;-2.20;99.90;;;;;;5009455;28;19913;-85
2022/03/08 01:51:08;;;;;;;;;;;-2.30;99.90;;;;;;4997529;28;19918;-85
2022/03/08 01:53:34;;;;;;;;;;;-2.30;99.90;;;;;;4986271;28;20000;-85
2022/03/08 01:56:00;;;;;;;;;;;-2.30;99.90;;;;;;5012756;28;20600;-85
2022/03/08 01:58:26;;;;;;;;;;;-2.30;99.90;;;;;;5021524;28;19940;-85
2022/03/08 02:00:52;;;;;;;;;;;-2.30;99.90;;;;;;5003226;28;19917;-85
2022/03/08 02:03:18;;;;;;;;;;;-2.30;99.90;;;;;;5023653;28;20333;-85
2022/03/08 02:05:46;;;;;;;;;;;-2.30;99.90;;;;;;4991965;28;19962;-85
2022/03/08 02:08:13;;;;;;;;;;;-2.40;99.90;;;;;;5008167;28;19921;-85
2022/03/08 02:10:38;;;;;;;;;;;-2.40;99.90;;;;;;5010954;28;19920;-85
2022/03/08 02:13:04;;;;;;;;;;;-2.40;99.90;;;;;;5021414;28;19913;-85
2022/03/08 02:15:30;;;;;;;;;;;-2.40;99.90;;;;;;5010810;28;20067;-85
2022/03/08 02:17:56;;;;;;;;;;;-2.40;99.90;;;;;;4988994;28;19945;-85
2022/03/08 02:20:22;;;;;;;;;;;-2.40;99.90;;;;;;5022774;28;19914;-86
2022/03/08 02:22:49;;;;;;;;;;;-2.40;99.90;;;;;;4990226;28;20290;-85
2022/03/08 02:25:15;;;;;;;;;;;-2.30;99.90;;;;;;5012657;28;20383;-85
2022/03/08 02:27:42;;;;;;;;;;;-2.30;99.90;;;;;;5024939;28;19914;-85
2022/03/08 02:30:09;;;;;;;;;;;-2.30;99.90;;;;;;5015046;28;20020;-85
2022/03/08 02:32:34;;;;;;;;;;;-2.30;99.90;;;;;;5014719;28;19924;-86
2022/03/08 02:35:09;;;;;;;;;;;-2.30;99.90;;;;;;4990157;28;19929;-85
2022/03/08 02:37:45;;;;;;;;;;;-2.30;99.90;;;;;;5030452;28;19917;-85
2022/03/08 02:40:13;;;;;;;;;;;-2.30;99.90;;;;;;4995084;28;19944;-84
2022/03/08 02:42:38;;;;;;;;;;;-2.30;99.90;;;;;;5014772;28;20318;-85
2022/03/08 02:45:04;;;;;;;;;;;-2.30;99.90;;;;;;5013385;28;19921;-85
2022/03/08 02:47:30;;;;;;;;;;;-2.30;99.90;;;;;;5026524;28;19971;-85
2022/03/08 02:49:55;;;;;;;;;;;-2.40;99.90;;;;;;5014628;28;19917;-84
2022/03/08 02:52:21;;;;;;;;;;;-2.40;99.90;;;;;;5014429;28;20353;-85
2022/03/08 02:54:47;;;;;;;;;;;-2.40;99.90;;;;;;5012474;28;19913;-86
2022/03/08 02:57:12;;;;;;;;;;;-2.40;99.90;;;;;;5005948;28;20051;-85
2022/03/08 02:59:38;;;;;;;;;;;-2.50;99.90;;;;;;5030704;28;19917;-85
2022/03/08 03:02:04;;;;;;;;;;;-2.50;99.90;;;;;;4991281;28;19967;-85
2022/03/08 03:04:30;;;;;;;;;;;-2.50;99.90;;;;;;5027270;28;20368;-85
2022/03/08 03:06:55;;;;;;;;;;;-2.60;99.90;;;;;;5013724;28;19921;-84
2022/03/08 03:09:21;;;;;;;;;;;-2.60;99.90;;;;;;5010311;28;20012;-85
2022/03/08 03:11:46;;;;;;;;;;;-2.70;99.90;;;;;;5017333;28;19936;-85
2022/03/08 03:14:12;;;;;;;;;;;-2.70;99.90;;;;;;5012496;28;19921;-85
2022/03/08 03:16:38;;;;;;;;;;;-2.80;99.90;;;;;;5012930;28;19917;-85
2022/03/08 03:19:04;;;;;;;;;;;-2.80;99.90;;;;;;5007081;28;20405;-85
2022/03/08 03:21:29;;;;;;;;;;;-2.80;99.90;;;;;;5010614;28;20000;-85
2022/03/08 03:23:55;;;;;;;;;;;-2.90;99.90;;;;;;5010745;28;20272;-85
2022/03/08 03:26:20;;;;;;;;;;;-2.90;99.90;;;;;;5011767;28;19917;-84
2022/03/08 03:28:48;;;;;;;;;;;-2.90;99.90;;;;;;5013339;28;20330;-85
2022/03/08 03:31:14;;;;;;;;;;;-3.00;99.90;;;;;;5013852;28;20016;-85
2022/03/08 03:33:40;;;;;;;;;;;-2.90;99.90;;;;;;5012701;28;20024;-85
2022/03/08 03:36:05;;;;;;;;;;;-2.90;99.90;;;;;;5012074;28;20011;-85
2022/03/08 03:38:31;;;;;;;;;;;-2.90;99.90;;;;;;4989154;28;19917;-85
2022/03/08 03:40:56;;;;;;;;;;;-2.90;99.90;;;;;;5010269;28;19917;-85
2022/03/08 03:43:22;;;;;;;;;;;-3.00;99.90;;;;;;4984396;28;19924;-85
2022/03/08 03:45:48;;;;;;;;;;;-3.10;99.90;;;;;;5028463;28;19914;-85
2022/03/08 03:48:13;;;;;;;;;;;-3.10;99.90;;;;;;5011372;28;19965;-86
2022/03/08 03:50:39;;;;;;;;;;;-3.10;99.90;;;;;;5013558;28;20441;-85
2022/03/08 03:53:05;;;;;;;;;;;-3.10;99.90;;;;;;4997357;28;19924;-85
2022/03/08 03:55:30;;;;;;;;;;;-3.10;99.90;;;;;;5011461;28;20000;-85
2022/03/08 03:57:56;;;;;;;;;;;-3.20;99.90;;;;;;4991782;28;20425;-85
2022/03/08 04:00:22;;;;;;;;;;;-3.20;99.90;;;;;;5005966;28;19917;-86
2022/03/08 04:02:47;;;;;;;;;;;-3.20;99.90;;;;;;5001553;28;19921;-85
2022/03/08 04:05:13;;;;;;;;;;;-3.30;99.90;;;;;;5001634;28;20003;-85
2022/03/08 04:07:39;;;;;;;;;;;-3.30;99.90;;;;;;5008019;28;19917;-85
2022/03/08 04:10:06;;;;;;;;;;;-3.30;99.90;;;;;;5023582;28;20004;-85
2022/03/08 04:12:31;;;;;;;;;;;-3.30;99.90;;;;;;5004040;28;19917;-85
2022/03/08 04:14:57;;;;;;;;;;;-3.30;99.90;;;;;;5011253;28;20020;-85
2022/03/08 04:17:22;;;;;;;;;;;-3.40;99.90;;;;;;5028103;28;19917;-86
2022/03/08 04:19:48;;;;;;;;;;;-3.40;99.90;;;;;;4994015;28;19917;-85
2022/03/08 04:22:13;;;;;;;;;;;-3.40;99.90;;;;;;5001115;28;19917;-85
2022/03/08 04:24:39;;;;;;;;;;;-3.50;99.90;;;;;;5005687;28;19913;-85
2022/03/08 04:27:05;;;;;;;;;;;-3.50;99.90;;;;;;5011578;28;19932;-85
2022/03/08 04:29:31;;;;;;;;;;;-3.50;99.90;;;;;;5025753;28;20295;-86
2022/03/08 04:31:57;;;;;;;;;;;-3.50;99.90;;;;;;5004749;28;19982;-86
2022/03/08 04:34:22;;;;;;;;;;;-3.50;99.90;;;;;;5027353;28;20446;-85
2022/03/08 04:36:48;;;;;;;;;;;-3.60;99.90;;;;;;5027857;28;20399;-86
2022/03/08 04:39:14;;;;;;;;;;;-3.60;99.90;;;;;;5008796;28;20076;-85
2022/03/08 04:41:39;;;;;;;;;;;-3.60;99.90;;;;;;5004855;28;19913;-86
2022/03/08 04:44:05;;;;;;;;;;;-3.60;99.90;;;;;;4990360;28;19924;-86
2022/03/08 04:46:31;;;;;;;;;;;-3.60;99.90;;;;;;4996503;28;19913;-86
2022/03/08 04:48:56;;;;;;;;;;;-3.60;99.90;;;;;;4999418;28;19917;-85
2022/03/08 04:51:22;;;;;;;;;;;-3.60;99.90;;;;;;4989912;28;19968;-86
2022/03/08 04:53:47;;;;;;;;;;;-3.60;99.90;;;;;;5005498;28;19922;-86
2022/03/08 04:56:14;;;;;;;;;;;-3.60;99.90;;;;;;5017186;28;19921;-86
2022/03/08 04:58:40;;;;;;;;;;;-3.60;99.90;;;;;;5023904;28;19917;-85
2022/03/08 05:01:06;;;;;;;;;;;-3.60;99.90;;;;;;5005788;28;19948;-85
2022/03/08 05:03:32;;;;;;;;;;;-3.60;99.90;;;;;;5008259;28;20368;-85
2022/03/08 05:05:57;;;;;;;;;;;-3.60;99.90;;;;;;5027217;28;19964;-85
2022/03/08 05:08:23;;;;;;;;;;;-3.70;99.90;;;;;;5011730;28;19975;-85
2022/03/08 05:10:48;;;;;;;;;;;-3.70;99.90;;;;;;4990140;28;19913;-85
2022/03/08 05:13:14;;;;;;;;;;;-3.70;99.90;;;;;;5007894;28;19957;-86
2022/03/08 05:15:40;;;;;;;;;;;-3.70;99.90;;;;;;5020264;28;19923;-86
2022/03/08 05:18:05;;;;;;;;;;;-3.70;99.90;;;;;;5007252;28;19924;-85
2022/03/08 05:20:31;;;;;;;;;;;-3.80;99.90;;;;;;5001684;28;20453;-85
2022/03/08 05:23:00;;;;;;;;;;;-3.80;99.90;;;;;;5015079;28;20008;-85
2022/03/08 05:25:27;;;;;;;;;;;-3.80;99.90;;;;;;5010353;28;19913;-86
2022/03/08 05:27:52;;;;;;;;;;;-3.80;99.90;;;;;;4991883;28;19924;-86
2022/03/08 05:30:18;;;;;;;;;;;-3.80;99.90;;;;;;5026126;28;20294;-85
2022/03/08 05:32:43;;;;;;;;;;;-3.90;99.90;;;;;;4991769;28;19921;-85
2022/03/08 05:35:09;;;;;;;;;;;-3.80;99.90;;;;;;5010140;28;19921;-86
2022/03/08 05:37:36;;;;;;;;;;;-3.80;99.90;;;;;;5010197;28;20352;-85
2022/03/08 05:40:03;;;;;;;;;;;-3.80;99.90;;;;;;5007989;28;20008;-85
2022/03/08 05:42:28;;;;;;;;;;;-3.80;99.90;;;;;;5005419;28;19917;-86
2022/03/08 05:44:54;;;;;;;;;;;-3.80;99.90;;;;;;4993202;28;19924;-86
2022/03/08 05:47:19;;;;;;;;;;;-3.80;99.90;;;;;;4997224;28;20017;-86
2022/03/08 05:49:45;;;;;;;;;;;-3.80;99.90;;;;;;4991019;28;19917;-86
2022/03/08 05:52:11;;;;;;;;;;;-3.80;99.90;;;;;;5003678;28;20298;-85
2022/03/08 05:54:36;;;;;;;;;;;-3.80;99.90;;;;;;4994245;28;19921;-85
2022/03/08 05:57:02;;;;;;;;;;;-3.90;99.90;;;;;;5011428;28;20026;-85
2022/03/08 05:59:27;;;;;;;;;;;-3.80;99.90;;;;;;5008958;28;19914;-85
2022/03/08 06:01:53;;;;;;;;;;;-3.90;99.90;;;;;;5011601;28;20044;-85
2022/03/08 06:04:19;;;;;;;;;;;-3.80;99.90;;;;;;4994878;28;19975;-85
2022/03/08 06:06:44;;;;;;;;;;;-3.80;99.90;;;;;;5012697;28;20201;-85
2022/03/08 06:09:10;;;;;;;;;;;-3.80;99.90;;;;;;4995124;28;20170;-85
2022/03/08 06:11:36;;;;;;;;;;;-3.80;99.90;;;;;;5006679;28;20479;-85
2022/03/08 06:14:01;;;;;;;;;;;-3.70;99.90;;;;;;5026359;28;19910;-86
2022/03/08 13:28:28;;;;;;;;;;;8.00;59.80;;;;;;5895411;23;19936;-78
2022/03/08 13:30:55;;;;;;;;;;;8.00;62.20;;;;;;5046564;28;20000;-77
2022/03/08 13:33:28;;;;;;;;;;;8.00;62.50;;;;;;5043672;28;19921;-77
2022/03/08 13:35:54;;;;;;;;;;;8.00;60.10;;;;;;5034487;28;19921;-78
2022/03/08 13:38:25;;;;;;;;;;;8.00;58.50;;;;;;5036172;28;19928;-79
2022/03/08 13:40:51;;;;;;;;;;;7.90;59.30;;;;;;5006553;28;19936;-76
2022/03/08 13:43:18;;;;;;;;;;;7.90;57.10;;;;;;5005194;28;19920;-77
2022/03/08 13:45:44;;;;;;;;;;;7.90;58.30;;;;;;5027990;28;19996;-78
2022/03/08 13:48:10;;;;;;;;;;;8.00;58.10;;;;;;5035201;28;19967;-77
2022/03/08 13:50:36;;;;;;;;;;;8.00;57.70;;;;;;5033218;28;19999;-79
2022/03/08 13:53:06;;;;;;;;;;;8.10;57.00;;;;;;5027437;28;19963;-77
2022/03/08 13:55:32;;;;;;;;;;;8.10;55.50;;;;;;5010514;28;19917;-78
2022/03/08 13:57:59;;;;;;;;;;;8.20;55.80;;;;;;5012453;28;19917;-77
2022/03/08 14:00:37;;;;;;;;;;;8.20;57.20;;;;;;5015716;28;19916;-77
2022/03/08 14:03:04;;;;;;;;;;;8.20;55.70;;;;;;5029708;28;20543;-76
2022/03/08 14:05:46;;;;;;;;;;;8.10;55.60;;;;;;5005267;28;19924;-77
2022/03/08 14:08:11;;;;;;;;;;;8.00;56.90;;;;;;5030678;28;19913;-77
2022/03/08 14:10:51;;;;;;;;;;;8.00;56.90;;;;;;5034186;28;19917;-77
2022/03/08 14:13:16;;;;;;;;;;;7.90;57.20;;;;;;5033200;28;19913;-77
2022/03/08 14:15:55;;;;;;;;;;;7.80;56.80;;;;;;5028648;28;19921;-77
2022/03/08 14:18:21;;;;;;;;;;;7.80;57.50;;;;;;5014602;28;19917;-78
2022/03/08 14:20:47;;;;;;;;;;;7.80;56.70;;;;;;5033636;28;19924;-78
2022/03/08 14:23:12;;;;;;;;;;;7.80;56.50;;;;;;5033236;28;19918;-76
2022/03/08 14:25:57;;;;;;;;;;;7.80;57.30;;;;;;5031015;28;20000;-76
2022/03/08 14:28:41;;;;;;;;;;;7.80;56.10;;;;;;5019683;28;19920;-77
2022/03/08 14:31:13;;;;;;;;;;;7.70;57.60;;;;;;5033005;28;19952;-78
2022/03/08 14:34:01;;;;;;;;;;;7.70;56.70;;;;;;5032714;28;19918;-77
2022/03/08 14:36:47;;;;;;;;;;;7.70;55.80;;;;;;5027410;28;19918;-77
2022/03/08 14:39:25;;;;;;;;;;;7.80;56.80;;;;;;5015924;28;19921;-80
2022/03/08 14:41:57;;;;;;;;;;;7.70;58.20;;;;;;5015715;28;20000;-77
2022/03/08 14:44:23;;;;;;;;;;;7.70;56.70;;;;;;5006637;28;19913;-77
2022/03/08 14:46:49;;;;;;;;;;;7.70;55.70;;;;;;5026876;28;19941;-78
2022/03/08 14:49:14;;;;;;;;;;;7.70;55.60;;;;;;5013170;28;19940;-77
2022/03/08 14:51:40;;;;;;;;;;;7.60;56.00;;;;;;5018239;28;19921;-77
2022/03/08 14:54:06;;;;;;;;;;;7.60;57.20;;;;;;5027725;28;19917;-77
2022/03/08 14:56:31;;;;;;;;;;;7.60;55.10;;;;;;5009519;28;19921;-76
2022/03/08 14:58:57;;;;;;;;;;;7.60;55.00;;;;;;5024432;28;19972;-77
2022/03/08 15:01:22;;;;;;;;;;;7.60;56.90;;;;;;5015909;28;20302;-76
2022/03/08 15:03:48;;;;;;;;;;;7.50;56.90;;;;;;5019970;28;19918;-76
2022/03/08 15:06:14;;;;;;;;;;;7.50;56.20;;;;;;5007516;28;20397;-76
2022/03/08 15:08:40;;;;;;;;;;;7.50;55.10;;;;;;5025690;28;19928;-77
2022/03/08 15:11:06;;;;;;;;;;;7.50;57.30;;;;;;5008162;28;19913;-77
2022/03/08 15:13:32;;;;;;;;;;;7.50;56.50;;;;;;5028319;28;19992;-76
2022/03/08 15:15:58;;;;;;;;;;;7.50;57.10;;;;;;5020880;28;19968;-76
2022/03/08 15:18:23;;;;;;;;;;;7.50;55.90;;;;;;5009482;28;19913;-77
2022/03/08 15:20:49;;;;;;;;;;;7.50;56.10;;;;;;4995021;28;19916;-77
2022/03/08 15:23:15;;;;;;;;;;;7.60;56.00;;;;;;5024982;28;19921;-78
2022/03/08 15:25:40;;;;;;;;;;;7.60;55.70;;;;;;5026719;28;19917;-78
2022/03/08 15:28:06;;;;;;;;;;;7.50;57.10;;;;;;5006128;28;19920;-77
2022/03/08 15:30:32;;;;;;;;;;;7.50;58.10;;;;;;5026854;28;19933;-77
2022/03/08 15:32:58;;;;;;;;;;;7.50;56.80;;;;;;5012243;28;19898;-76
2022/03/08 15:51:35;;;;;;;;;;;7.50;55.20;;;;;;5470261;22;19959;-85
2022/03/08 15:54:01;;;;;;;;;;;7.40;57.80;;;;;;5035694;28;19960;-85
2022/03/08 15:56:27;;;;;;;;;;;7.50;55.80;;;;;;5036411;28;20437;-85
2022/03/08 15:58:53;;;;;;;;;;;7.40;58.00;;;;;;5046089;28;19948;-85
2022/03/08 16:04:49;;;;;;;;;;;7.30;57.60;;;;;;5059778;28;20342;-85
2022/03/08 16:07:15;;;;;;;;;;;7.30;57.20;;;;;;5035191;28;19912;-85
2022/03/08 16:09:40;;;;;;;;;;;7.20;57.00;;;;;;5034507;28;19932;-85
2022/03/08 16:12:06;;;;;;;;;;;7.20;58.20;;;;;;5034744;28;19913;-86
2022/03/08 16:14:32;;;;;;;;;;;7.10;57.70;;;;;;5020478;28;20002;-88
2022/03/08 16:16:57;;;;;;;;;;;7.00;58.60;;;;;;5055319;22;19925;-86
2022/03/08 16:19:23;;;;;;;;;;;7.00;57.70;;;;;;5015760;28;19956;-84
2022/03/08 16:21:50;;;;;;;;;;;7.00;59.00;;;;;;4997580;28;19924;-87
2022/03/08 16:24:16;;;;;;;;;;;7.00;61.10;;;;;;5017814;28;19917;-86
2022/03/08 16:26:42;;;;;;;;;;;6.80;61.60;;;;;;5013428;28;19921;-86
2022/03/08 16:29:08;;;;;;;;;;;6.80;62.30;;;;;;5014166;28;19913;-86
2022/03/08 16:31:37;;;;;;;;;;;6.70;61.40;;;;;;5003885;28;19925;-87
2022/03/08 16:34:06;;;;;;;;;;;6.60;61.90;;;;;;5007691;28;20454;-88
2022/03/08 17:52:08;;;;;;;;;;;3.50;69.50;;;;;;5880459;22;19936;-87
2022/03/08 17:54:33;;;;;;;;;;;3.50;72.80;;;;;;5025509;28;19921;-88
2022/03/08 17:57:00;;;;;;;;;;;3.50;74.20;;;;;;5011597;28;19979;-86
2022/03/08 17:59:25;;;;;;;;;;;3.50;75.00;;;;;;5018663;28;19913;-88
2022/03/08 18:01:53;;;;;;;;;;;3.50;74.90;;;;;;5013874;28;19920;-87
2022/03/08 18:04:18;;;;;;;;;;;3.40;72.60;;;;;;5015869;28;19909;-87
2022/03/08 18:06:44;;;;;;;;;;;3.40;74.50;;;;;;5030354;28;19916;-88
2022/03/08 18:09:10;;;;;;;;;;;3.40;74.50;;;;;;5017021;28;20101;-89
2022/03/08 18:11:36;;;;;;;;;;;3.40;75.70;;;;;;5029010;28;20369;-87
2022/03/08 18:14:01;;;;;;;;;;;3.30;77.20;;;;;;5014777;28;19980;-87
2022/03/08 18:16:27;;;;;;;;;;;3.20;78.40;;;;;;5014194;28;19966;-87
2022/03/08 18:18:54;;;;;;;;;;;3.20;78.30;;;;;;5012601;28;19913;-87
2022/03/08 18:21:19;;;;;;;;;;;3.00;78.00;;;;;;5034666;28;19916;-87
2022/03/08 18:23:45;;;;;;;;;;;2.90;77.80;;;;;;5017447;28;19917;-87
2022/03/08 18:26:11;;;;;;;;;;;2.90;79.50;;;;;;5014059;28;20015;-87
2022/03/08 18:28:37;;;;;;;;;;;2.90;80.40;;;;;;5017468;28;19963;-88
2022/03/08 18:31:03;;;;;;;;;;;2.80;81.10;;;;;;5018300;28;19917;-88
2022/03/08 18:33:29;;;;;;;;;;;2.80;81.90;;;;;;5017843;28;20019;-87
2022/03/08 18:35:54;;;;;;;;;;;2.70;81.70;;;;;;5016972;28;20016;-88
2022/03/08 18:38:20;;;;;;;;;;;2.50;81.80;;;;;;5017278;28;19942;-87
2022/03/08 18:40:46;;;;;;;;;;;2.40;81.50;;;;;;5018265;28;20354;-87
2022/03/08 18:43:11;;;;;;;;;;;2.40;81.80;;;;;;5017004;28;20389;-86
2022/03/08 18:45:37;;;;;;;;;;;2.40;80.20;;;;;;5015048;28;19921;-88
2022/03/08 18:48:03;;;;;;;;;;;2.40;79.00;;;;;;5016535;28;19923;-87
2022/03/08 18:50:31;;;;;;;;;;;2.40;80.80;;;;;;5016355;28;20450;-88
2022/03/08 18:52:56;;;;;;;;;;;2.40;83.60;;;;;;5027390;28;20272;-87
2022/03/08 18:55:23;;;;;;;;;;;2.40;83.80;;;;;;5026884;28;19917;-87
2022/03/08 21:36:52;;;;;;;;;;;-0.20;96.20;;;;;;5052949;28;19932;-77
2022/03/08 21:39:18;;;;;;;;;;;-0.20;96.60;;;;;;5018678;28;19980;-78
2022/03/08 21:41:43;;;;;;;;;;;-0.10;96.30;;;;;;5036800;28;19967;-78
2022/03/08 21:44:09;;;;;;;;;;;-0.20;97.10;;;;;;5054423;28;19919;-77
2022/03/08 21:46:35;;;;;;;;;;;-0.30;97.40;;;;;;5053371;28;19956;-78
2022/03/08 21:49:03;;;;;;;;;;;-0.40;97.70;;;;;;5036400;28;20341;-78
2022/03/08 21:51:30;;;;;;;;;;;-0.40;97.40;;;;;;5054216;28;19988;-78
2022/03/08 21:53:55;;;;;;;;;;;-0.40;98.50;;;;;;5034132;28;19935;-78
2022/03/08 21:56:25;;;;;;;;;;;-0.30;98.60;;;;;;5019448;28;19996;-78
2022/03/08 21:58:52;;;;;;;;;;;-0.40;98.80;;;;;;5028854;28;19923;-78
2022/03/08 22:01:17;;;;;;;;;;;-0.50;98.80;;;;;;5020194;28;19959;-78
2022/03/08 22:03:43;;;;;;;;;;;-0.50;98.80;;;;;;5050107;28;19917;-78
2022/03/08 22:06:08;;;;;;;;;;;-0.40;99.30;;;;;;5028305;28;19917;-78
2022/03/08 22:08:34;;;;;;;;;;;-0.40;98.70;;;;;;5052002;28;19913;-77
2022/03/08 22:11:01;;;;;;;;;;;-0.40;98.20;;;;;;5052661;28;19912;-78
2022/03/08 22:13:27;;;;;;;;;;;-0.40;98.30;;;;;;5033545;28;19913;-78
2022/03/08 22:15:53;;;;;;;;;;;-0.40;98.40;;;;;;5035154;28;19932;-77
2022/03/08 22:18:19;;;;;;;;;;;-0.50;98.60;;;;;;5049597;28;19913;-78
2022/03/08 22:20:44;;;;;;;;;;;-0.50;98.70;;;;;;5047026;28;19918;-78
2022/03/08 22:23:10;;;;;;;;;;;-0.50;99.20;;;;;;5038005;28;19913;-78
2022/03/08 22:25:35;;;;;;;;;;;-0.50;99.20;;;;;;5053756;28;19919;-78
2022/03/08 22:28:01;;;;;;;;;;;-0.40;99.90;;;;;;5034929;28;20352;-78
2022/03/08 22:30:27;;;;;;;;;;;-0.40;99.60;;;;;;5021026;28;20275;-78
2022/03/08 22:32:52;;;;;;;;;;;-0.40;99.10;;;;;;5055582;28;19913;-78
2022/03/08 22:35:18;;;;;;;;;;;-0.40;99.60;;;;;;5032605;28;20023;-78
2022/03/08 22:37:44;;;;;;;;;;;-0.50;99.90;;;;;;5049050;28;19921;-77
2022/03/08 22:40:09;;;;;;;;;;;-0.50;99.90;;;;;;5035671;28;19917;-77
2022/03/08 22:42:35;;;;;;;;;;;-0.50;99.90;;;;;;5035557;28;19932;-78
2022/03/08 22:45:01;;;;;;;;;;;-0.50;99.90;;;;;;5033804;28;19913;-78
2022/03/08 22:47:26;;;;;;;;;;;-0.50;99.90;;;;;;5031098;28;19932;-78
2022/03/08 22:52:36;;;;;;;;;;;-0.60;99.90;;;;;;5050769;28;20275;-77
2022/03/08 22:55:02;;;;;;;;;;;-0.70;99.90;;;;;;5050868;28;19995;-77
2022/03/08 22:57:28;;;;;;;;;;;-0.70;99.90;;;;;;5046472;28;19920;-78
2022/03/08 22:59:54;;;;;;;;;;;-0.80;99.90;;;;;;5049567;28;19919;-77
2022/03/08 23:02:19;;;;;;;;;;;-0.70;99.90;;;;;;5016740;28;19924;-78
2022/03/08 23:04:45;;;;;;;;;;;-0.70;99.90;;;;;;5031886;28;19921;-78
2022/03/08 23:07:11;;;;;;;;;;;-0.70;99.90;;;;;;5054473;28;19919;-78
2022/03/08 23:09:37;;;;;;;;;;;-0.70;99.90;;;;;;5034705;28;19940;-79
2022/03/08 23:12:03;;;;;;;;;;;-0.80;99.90;;;;;;5017619;28;20367;-79
2022/03/08 23:14:28;;;;;;;;;;;-0.90;99.90;;;;;;5014944;28;19924;-79
2022/03/08 23:16:54;;;;;;;;;;;-0.90;99.90;;;;;;5022388;28;19973;-79
2022/03/08 23:19:20;;;;;;;;;;;-1.00;99.90;;;;;;5020856;28;20015;-78
2022/03/08 23:21:45;;;;;;;;;;;-0.90;99.90;;;;;;5040952;28;19912;-78
2022/03/08 23:24:11;;;;;;;;;;;-0.90;99.90;;;;;;5055128;28;19920;-78
2022/03/08 23:26:37;;;;;;;;;;;-1.00;99.90;;;;;;5052630;28;19921;-78
2022/03/08 23:29:02;;;;;;;;;;;-1.10;99.90;;;;;;5020427;28;19917;-79
2022/03/08 23:31:28;;;;;;;;;;;-1.10;99.90;;;;;;5038442;28;19913;-78
2022/03/08 23:33:53;;;;;;;;;;;-1.10;99.90;;;;;;5019532;28;19912;-79
2022/03/08 23:36:19;;;;;;;;;;;-1.10;99.90;;;;;;5037155;28;19924;-79
2022/03/08 23:38:45;;;;;;;;;;;-1.00;99.90;;;;;;5015439;28;20375;-79
2022/03/08 23:41:10;;;;;;;;;;;-1.00;99.90;;;;;;5038235;28;19917;-78
2022/03/08 23:43:36;;;;;;;;;;;-1.10;99.90;;;;;;5018956;28;19924;-79
2022/03/08 23:46:01;;;;;;;;;;;-1.10;99.90;;;;;;5020931;28;19920;-79
2022/03/08 23:48:27;;;;;;;;;;;-1.10;99.90;;;;;;5052854;28;20044;-79
2022/03/08 23:50:53;;;;;;;;;;;-1.10;99.90;;;;;;5037928;28;19920;-79
2022/03/08 23:53:18;;;;;;;;;;;-1.10;99.90;;;;;;5046282;28;20000;-78
2022/03/08 23:55:44;;;;;;;;;;;-1.00;99.90;;;;;;5019923;28;20357;-78
2022/03/08 23:58:10;;;;;;;;;;;-1.00;99.90;;;;;;5037214;28;19920;-78
